ADDS METAR Data INFO
IDs: Format: Raw Decoded Include TAF

Data at: 0750 UTC 17 Oct 2017

KDUC 170735Z AUTO 12004KT 10SM CLR 07/05 A3028 RMK AO2 T00700051
KDUC 170715Z AUTO 11004KT 10SM CLR 07/05 A3028 RMK AO2 T00660053
KDUC 170655Z AUTO 11003KT 10SM CLR 07/06 A3029 RMK AO2 T00740061
KDUC 170635Z AUTO 00000KT 10SM CLR 08/06 A3030 RMK AO2 T00790058
KDUC 170615Z AUTO 00000KT 10SM CLR 08/06 A3031 RMK AO2 T00780062
KDUC 170555Z AUTO 00000KT 10SM CLR 09/06 A3031 RMK AO2 T00860064 10186 20085
KDUC 170535Z AUTO 00000KT 10SM CLR 10/06 A3031 RMK AO2 T00970058
KDUC 170515Z AUTO 00000KT 10SM CLR 10/07 A3031 RMK AO2 T00950066
KDUC 170455Z AUTO 00000KT 10SM CLR 09/06 A3031 RMK AO2 T00940065
KDUC 170435Z AUTO 00000KT 10SM CLR 10/07 A3031 RMK AO2 T01040068
KDUC 170415Z AUTO 00000KT 10SM CLR 10/07 A3031 RMK AO2 T01050073
KDUC 170355Z AUTO 00000KT 10SM CLR 10/07 A3031 RMK AO2 T01010074
KDUC 170335Z AUTO 00000KT 10SM CLR 12/06 A3031 RMK AO2 T01190058
KDUC 170315Z AUTO 00000KT 10SM CLR 12/06 A3031 RMK AO2 T01190061
KDUC 170255Z AUTO 00000KT 10SM CLR 13/06 A3030 RMK AO2 T01330057
KDUC 170235Z AUTO 00000KT 10SM CLR 13/06 A3030 RMK AO2 T01320063
KDUC 170215Z AUTO 10004KT 10SM CLR 14/06 A3030 RMK AO2 T01370060
KDUC 170155Z AUTO 09005KT 10SM CLR 14/07 A3030 RMK AO2 T01380066
KDUC 170135Z AUTO 09005KT 10SM CLR 15/06 A3030 RMK AO2 T01480062
KDUC 170115Z AUTO 10003KT 10SM CLR 15/06 A3030 RMK AO2 T01480063
KDUC 170055Z AUTO 00000KT 10SM CLR 15/06 A3030 RMK AO2 T01540064
KDUC 170035Z AUTO 11004KT 10SM CLR 16/06 A3029 RMK AO2 T01630059
KDUC 170015Z AUTO 09005KT 10SM CLR 18/05 A3029 RMK AO2 T01750053
KDUC 162355Z AUTO 10004KT 10SM CLR 19/05 A3029 RMK AO2 T01890048 10217 20187 402170054
KDUC 162335Z AUTO 00000KT 10SM CLR 20/05 A3030 RMK AO2 T01970048
KDUC 162315Z AUTO 00000KT 10SM CLR 21/04 A3030 RMK AO2 T02070043
KDUC 162255Z AUTO 10003KT 10SM CLR 21/04 A3030 RMK AO2 T02110037
KDUC 162235Z AUTO 08003KT 10SM CLR 21/03 A3030 RMK AO2 T02120031
KDUC 162215Z AUTO 10004KT 10SM CLR 21/03 A3030 RMK AO2 T02120032
KDUC 162155Z AUTO 13003KT 10SM CLR 21/02 A3031 RMK AO2 T02110025
KDUC 162135Z AUTO 18003KT 10SM CLR 21/02 A3031 RMK AO2 T02090022
KDUC 162115Z AUTO 08007KT 10SM CLR 21/02 A3032 RMK AO2 T02130024
KDUC 162055Z AUTO 09007KT 10SM CLR 21/03 A3032 RMK AO2 T02110026
KDUC 162035Z AUTO 13005KT 10SM CLR 21/02 A3033 RMK AO2 T02080024
KDUC 162015Z AUTO 11007KT 10SM CLR 21/03 A3034 RMK AO2 T02090026
KDUC 161955Z AUTO 10004KT 10SM CLR 21/02 A3035 RMK AO2 T02100024
KDUC 161935Z AUTO 11005KT 10SM CLR 20/02 A3036 RMK AO2 T02020019
KDUC 161915Z AUTO 11008KT 10SM CLR 20/02 A3037 RMK AO2 T02020019
KDUC 161855Z AUTO 09006KT 10SM CLR 20/02 A3039 RMK AO2 T02020017
KDUC 161835Z AUTO 06007KT 10SM CLR 20/03 A3040 RMK AO2 T02000031
KDUC 161815Z AUTO 07008KT 10SM CLR 20/03 A3041 RMK AO2 T01970025
KDUC 161755Z AUTO 04009KT 10SM CLR 19/02 A3043 RMK AO2 T01930023 10196 20054
KDUC 161735Z AUTO 09008KT 10SM CLR 19/02 A3044 RMK AO2 T01920018
KDUC 161715Z AUTO 05007KT 10SM CLR 19/02 A3045 RMK AO2 T01850025
KDUC 161655Z AUTO 07007KT 10SM CLR 18/02 A3046 RMK AO2
KDUC 161635Z AUTO 10006KT CLR 18/02 A3046 RMK AO2 T01780019
KDUC 161615Z AUTO 03004KT 10SM CLR 17/04 A3047 RMK AO2 T01720035
KDUC 161555Z AUTO 11005KT 10SM CLR 17/03 A3047 RMK AO2 T01660031
KDUC 161535Z AUTO 08004KT 10SM CLR 16/04 A3047 RMK AO2 T01550039
KDUC 161515Z AUTO 09004KT 10SM CLR 15/04 A3047 RMK AO2 T01510044
KDUC 161455Z AUTO 07004KT 10SM CLR 14/05 A3047 RMK AO2 T01390051
KDUC 161435Z AUTO 04003KT 10SM CLR 13/06 A3047 RMK AO2 T01250060
KDUC 161415Z AUTO 00000KT 10SM CLR 10/06 A3047 RMK AO2 T00990060
KDUC 161355Z AUTO 32004KT 10SM CLR 08/05 A3046 RMK AO2 T00850054
KDUC 161335Z AUTO 31003KT 10SM CLR 07/05 A3046 RMK AO2 T00730048
KDUC 161315Z AUTO 32004KT 10SM CLR 06/04 A3045 RMK AO2 T00650043
KDUC 161255Z AUTO 31003KT 10SM CLR 06/04 A3045 RMK AO2 T00550039
KDUC 161235Z AUTO 31004KT 10SM CLR 06/04 A3045 RMK AO2 T00570039
KDUC 161215Z AUTO 30003KT 10SM CLR 06/04 A3045 RMK AO2 T00550039
KDUC 161155Z AUTO 00000KT 10SM CLR 06/04 A3044 RMK AO2 T00610039 10105 20054
KDUC 161135Z AUTO 32004KT 10SM CLR 06/04 A3044 RMK AO2 T00600039
KDUC 161115Z AUTO 00000KT 10SM CLR 05/04 A3044 RMK AO2 T00550039
KDUC 161055Z AUTO 33003KT 10SM CLR 06/04 A3043 RMK AO2 T00610041
KDUC 161035Z AUTO 32005KT 10SM CLR 06/04 A3043 RMK AO2 T00610041
KDUC 161015Z AUTO 29004KT 10SM CLR 06/04 A3042 RMK AO2 T00570041
KDUC 160955Z AUTO 33003KT 10SM CLR 06/04 A3042 RMK AO2 T00630042
KDUC 160935Z AUTO 32004KT 10SM CLR 07/04 A3042 RMK AO2 T00660043
KDUC 160915Z AUTO 34005KT 10SM CLR 08/04 A3042 RMK AO2 T00780044
KDUC 160855Z AUTO 33005KT 10SM CLR 07/05 A3042 RMK AO2 T00690046
KDUC 160835Z AUTO 35006KT 10SM CLR 07/05 A3042 RMK AO2 T00750046
KDUC 160815Z AUTO 35004KT 10SM CLR 07/05 A3043 RMK AO2 T00720048
KDUC 160755Z AUTO 32004KT 10SM CLR 08/05 A3043 RMK AO2 T00770048
KDUC 160735Z AUTO 33004KT 10SM CLR 08/05 A3043 RMK AO2 T00810047
KDUC 160715Z AUTO 33003KT 10SM CLR 08/05 A3043 RMK AO2 T00810048
KDUC 160655Z AUTO 34004KT 10SM CLR 08/05 A3042 RMK AO2 T00840047
KDUC 160635Z AUTO 35004KT 10SM CLR 09/05 A3042 RMK AO2 T00910048
KDUC 160615Z AUTO 36005KT 10SM CLR 10/04 A3042 RMK AO2 T01040038
KDUC 160555Z AUTO 36006KT 10SM CLR 10/04 A3042 RMK AO2 T01020040 10165 20100
KDUC 160535Z AUTO 01006KT 10SM CLR 10/04 A3042 RMK AO2 T01000041
KDUC 160515Z AUTO 01006KT 10SM CLR 10/04 A3042 RMK AO2 T01040040
KDUC 160455Z AUTO 03006KT 10SM CLR 10/04 A3042 RMK AO2 T01040042
KDUC 160435Z AUTO 02007KT 10SM CLR 11/04 A3042 RMK AO2 T01090041
KDUC 160415Z AUTO 02007KT 10SM CLR 11/04 A3042 RMK AO2 T01120041
KDUC 160355Z AUTO 02006KT 10SM CLR 11/04 A3042 RMK AO2 T01100041
KDUC 160335Z AUTO 01006KT 10SM CLR 11/04 A3042 RMK AO2 T01100043
KDUC 160315Z AUTO 02006KT 10SM CLR 12/04 A3041 RMK AO2 T01170044
KDUC 160255Z AUTO 02006KT 10SM CLR 12/04 A3041 RMK AO2 T01210042
KDUC 160235Z AUTO 01006KT 10SM CLR 13/04 A3040 RMK AO2 T01270041
KDUC 160215Z AUTO 01006KT 10SM CLR 13/04 A3040 RMK AO2 T01310041
KDUC 160155Z AUTO 36007KT 10SM CLR 13/04 A3039 RMK AO2 T01330045
KDUC 160135Z AUTO 36008KT 10SM CLR 14/05 A3039 RMK AO2 T01360047
KDUC 160115Z AUTO 36006KT 10SM CLR 14/05 A3039 RMK AO2 T01370049
KDUC 160055Z AUTO 36006KT 10SM CLR 14/05 A3038 RMK AO2 T01420049
KDUC 160035Z AUTO 01006KT 10SM CLR 15/05 A3037 RMK AO2 T01480051
KDUC 160015Z AUTO 36007KT 10SM CLR 15/05 A3037 RMK AO2 T01540052
KDUC 152355Z AUTO 01009KT 10SM CLR 17/05 A3036 RMK AO2 T01670049 10200 20165 402930103
KDUC 152335Z AUTO 01010G14KT 10SM CLR 17/05 A3036 RMK AO2 T01740047
KDUC 152315Z AUTO 02011KT 10SM CLR 18/05 A3036 RMK AO2 T01810052
KDUC 152255Z AUTO 01012G17KT 10SM CLR 18/05 A3035 RMK AO2 T01830049
KDUC 152235Z AUTO 01013G19KT 10SM CLR 19/05 A3035 RMK AO2 T01900050
KDUC 152215Z AUTO 36013G18KT 10SM CLR 19/05 A3035 RMK AO2 T01930050
KDUC 152155Z AUTO 01013G21KT 10SM CLR 19/04 A3036 RMK AO2 T01910042
KDUC 152135Z AUTO 03015KT 10SM CLR 19/04 A3036 RMK AO2 T01900035
KDUC 152115Z AUTO 01013G21KT 10SM CLR 19/05 A3036 RMK AO2 T01940045
KDUC 152055Z AUTO 02014G21KT 10SM CLR 20/04 A3037 RMK AO2 T01970043
KDUC 152035Z AUTO 01018G21KT 10SM CLR 20/04 A3037 RMK AO2 T01970044
KDUC 152015Z AUTO 02014G19KT 10SM CLR 19/04 A3037 RMK AO2 T01900036
KDUC 151955Z AUTO 02015G20KT 10SM CLR 19/04 A3037 RMK AO2 T01890044